sensor_id;sensor_type;location;lat;lon;timestamp;pressure;altitude;pressure_sealevel;temperature;humidity
56568;BME280;42456;49.956;20.004;2023-02-26T00:01:28;97040.02;;;1.09;83.73
56568;BME280;42456;49.956;20.004;2023-02-26T00:03:58;97049.27;;;1.09;83.23
56568;BME280;42456;49.956;20.004;2023-02-26T00:06:28;97059.84;;;1.11;83.54
56568;BME280;42456;49.956;20.004;2023-02-26T00:08:55;97063.91;;;1.10;83.15
56568;BME280;42456;49.956;20.004;2023-02-26T00:11:23;97056.76;;;1.11;83.74
56568;BME280;42456;49.956;20.004;2023-02-26T00:13:50;97055.36;;;1.12;83.65
56568;BME280;42456;49.956;20.004;2023-02-26T00:16:29;97057.98;;;1.13;83.47
56568;BME280;42456;49.956;20.004;2023-02-26T00:18:59;97062.74;;;1.13;83.67
56568;BME280;42456;49.956;20.004;2023-02-26T00:21:27;97064.29;;;1.13;83.47
56568;BME280;42456;49.956;20.004;2023-02-26T00:23:54;97074.41;;;1.13;83.79
56568;BME280;42456;49.956;20.004;2023-02-26T00:26:23;97081.66;;;1.13;83.57
56568;BME280;42456;49.956;20.004;2023-02-26T00:28:53;97086.96;;;1.12;83.38
56568;BME280;42456;49.956;20.004;2023-02-26T00:31:21;97088.25;;;1.11;83.70
56568;BME280;42456;49.956;20.004;2023-02-26T00:33:52;97090.30;;;1.10;83.62
56568;BME280;42456;49.956;20.004;2023-02-26T00:36:23;97096.20;;;1.09;83.03
56568;BME280;42456;49.956;20.004;2023-02-26T00:41:49;97117.06;;;1.06;83.22
56568;BME280;42456;49.956;20.004;2023-02-26T00:44:16;97121.38;;;1.04;82.93
56568;BME280;42456;49.956;20.004;2023-02-26T00:47:07;97121.14;;;1.03;82.99
56568;BME280;42456;49.956;20.004;2023-02-26T00:52:27;97124.32;;;1.00;82.87
56568;BME280;42456;49.956;20.004;2023-02-26T00:54:56;97125.56;;;0.99;83.04
56568;BME280;42456;49.956;20.004;2023-02-26T00:57:23;97124.89;;;0.98;83.43
56568;BME280;42456;49.956;20.004;2023-02-26T00:59:49;97122.42;;;0.97;83.55
56568;BME280;42456;49.956;20.004;2023-02-26T01:02:16;97124.02;;;0.96;82.96
56568;BME280;42456;49.956;20.004;2023-02-26T01:04:43;97125.67;;;0.96;82.86
56568;BME280;42456;49.956;20.004;2023-02-26T01:07:13;97130.14;;;0.96;83.26
56568;BME280;42456;49.956;20.004;2023-02-26T01:09:41;97133.46;;;0.96;83.47
56568;BME280;42456;49.956;20.004;2023-02-26T01:12:10;97135.36;;;0.96;83.65
56568;BME280;42456;49.956;20.004;2023-02-26T01:14:39;97127.67;;;0.96;83.24
56568;BME280;42456;49.956;20.004;2023-02-26T01:17:24;97124.40;;;0.96;83.35
56568;BME280;42456;49.956;20.004;2023-02-26T01:20:22;97120.90;;;0.97;83.55
56568;BME280;42456;49.956;20.004;2023-02-26T01:23:00;97111.09;;;0.98;83.47
56568;BME280;42456;49.956;20.004;2023-02-26T01:25:43;97103.66;;;0.98;84.19
56568;BME280;42456;49.956;20.004;2023-02-26T01:28:14;97102.69;;;0.99;84.06
56568;BME280;42456;49.956;20.004;2023-02-26T01:30:41;97100.40;;;1.00;83.82
56568;BME280;42456;49.956;20.004;2023-02-26T01:35:52;97093.81;;;0.98;84.00
56568;BME280;42456;49.956;20.004;2023-02-26T01:49:37;97123.81;;;0.94;83.61
56568;BME280;42456;49.956;20.004;2023-02-26T01:52:06;97139.25;;;0.92;84.23
56568;BME280;42456;49.956;20.004;2023-02-26T01:54:34;97147.44;;;0.90;84.20
56568;BME280;42456;49.956;20.004;2023-02-26T01:57:14;97149.71;;;0.88;84.14
56568;BME280;42456;49.956;20.004;2023-02-26T01:59:47;97153.89;;;0.85;84.30
56568;BME280;42456;49.956;20.004;2023-02-26T02:02:18;97157.95;;;0.83;84.47
56568;BME280;42456;49.956;20.004;2023-02-26T02:04:47;97162.64;;;0.82;84.41
56568;BME280;42456;49.956;20.004;2023-02-26T02:07:16;97174.38;;;0.81;84.77
56568;BME280;42456;49.956;20.004;2023-02-26T02:09:43;97182.17;;;0.82;84.59
56568;BME280;42456;49.956;20.004;2023-02-26T02:15:06;97180.66;;;0.80;84.14
56568;BME280;42456;49.956;20.004;2023-02-26T02:23:05;97167.56;;;0.79;83.80
56568;BME280;42456;49.956;20.004;2023-02-26T02:25:51;97178.84;;;0.79;84.19
56568;BME280;42456;49.956;20.004;2023-02-26T02:31:48;97189.23;;;0.77;84.18
56568;BME280;42456;49.956;20.004;2023-02-26T02:37:15;97200.35;;;0.77;83.43
56568;BME280;42456;49.956;20.004;2023-02-26T02:39:49;97201.67;;;0.78;84.03
56568;BME280;42456;49.956;20.004;2023-02-26T02:42:43;97199.83;;;0.77;83.52
56568;BME280;42456;49.956;20.004;2023-02-26T02:47:56;97215.82;;;0.73;83.95
56568;BME280;42456;49.956;20.004;2023-02-26T02:53:00;97224.25;;;0.73;83.81
56568;BME280;42456;49.956;20.004;2023-02-26T02:55:37;97224.14;;;0.72;84.28
56568;BME280;42456;49.956;20.004;2023-02-26T02:58:10;97219.71;;;0.72;83.83
56568;BME280;42456;49.956;20.004;2023-02-26T03:00:42;97212.65;;;0.70;83.98
56568;BME280;42456;49.956;20.004;2023-02-26T03:03:29;97208.95;;;0.70;83.85
56568;BME280;42456;49.956;20.004;2023-02-26T03:05:57;97200.53;;;0.70;83.95
56568;BME280;42456;49.956;20.004;2023-02-26T03:08:31;97193.03;;;0.69;83.92
56568;BME280;42456;49.956;20.004;2023-02-26T03:11:00;97190.14;;;0.68;83.69
56568;BME280;42456;49.956;20.004;2023-02-26T03:13:27;97190.02;;;0.66;83.53
56568;BME280;42456;49.956;20.004;2023-02-26T03:16:04;97195.70;;;0.64;84.11
56568;BME280;42456;49.956;20.004;2023-02-26T03:18:46;97195.09;;;0.63;84.16
56568;BME280;42456;49.956;20.004;2023-02-26T03:26:41;97225.30;;;0.60;83.93
56568;BME280;42456;49.956;20.004;2023-02-26T03:32:06;97255.11;;;0.59;83.75
56568;BME280;42456;49.956;20.004;2023-02-26T03:34:46;97264.85;;;0.59;84.00
56568;BME280;42456;49.956;20.004;2023-02-26T03:37:25;97271.45;;;0.59;83.82
56568;BME280;42456;49.956;20.004;2023-02-26T03:39:57;97277.22;;;0.60;83.93
56568;BME280;42456;49.956;20.004;2023-02-26T03:42:29;97281.45;;;0.60;83.34
56568;BME280;42456;49.956;20.004;2023-02-26T03:45:12;97282.94;;;0.59;83.29
56568;BME280;42456;49.956;20.004;2023-02-26T03:47:43;97282.90;;;0.59;83.26
56568;BME280;42456;49.956;20.004;2023-02-26T03:50:19;97284.27;;;0.59;83.11
56568;BME280;42456;49.956;20.004;2023-02-26T03:52:49;97285.32;;;0.59;83.01
56568;BME280;42456;49.956;20.004;2023-02-26T03:55:24;97285.45;;;0.57;82.73
56568;BME280;42456;49.956;20.004;2023-02-26T03:57:52;97286.58;;;0.57;82.55
56568;BME280;42456;49.956;20.004;2023-02-26T04:00:19;97281.77;;;0.56;82.61
56568;BME280;42456;49.956;20.004;2023-02-26T04:05:38;97289.30;;;0.52;81.68
56568;BME280;42456;49.956;20.004;2023-02-26T04:08:06;97304.33;;;0.48;81.61
56568;BME280;42456;49.956;20.004;2023-02-26T04:10:47;97315.11;;;0.45;81.48
56568;BME280;42456;49.956;20.004;2023-02-26T04:13:17;97321.75;;;0.43;81.29
56568;BME280;42456;49.956;20.004;2023-02-26T04:15:44;97327.70;;;0.41;81.22
56568;BME280;42456;49.956;20.004;2023-02-26T04:18:11;97338.82;;;0.40;81.28
56568;BME280;42456;49.956;20.004;2023-02-26T04:20:38;97339.42;;;0.39;81.02
56568;BME280;42456;49.956;20.004;2023-02-26T04:23:04;97342.31;;;0.36;80.82
56568;BME280;42456;49.956;20.004;2023-02-26T04:25:32;97353.11;;;0.35;81.07
56568;BME280;42456;49.956;20.004;2023-02-26T04:27:58;97356.63;;;0.34;80.74
56568;BME280;42456;49.956;20.004;2023-02-26T04:30:25;97357.77;;;0.32;80.82
56568;BME280;42456;49.956;20.004;2023-02-26T04:32:52;97357.73;;;0.30;80.19
56568;BME280;42456;49.956;20.004;2023-02-26T04:35:19;97358.77;;;0.29;80.35
56568;BME280;42456;49.956;20.004;2023-02-26T04:37:46;97364.44;;;0.27;79.96
56568;BME280;42456;49.956;20.004;2023-02-26T04:40:12;97367.87;;;0.24;79.97
56568;BME280;42456;49.956;20.004;2023-02-26T04:42:40;97369.70;;;0.21;78.79
56568;BME280;42456;49.956;20.004;2023-02-26T04:45:07;97376.99;;;0.17;79.07
56568;BME280;42456;49.956;20.004;2023-02-26T04:47:34;97374.63;;;0.13;78.48
56568;BME280;42456;49.956;20.004;2023-02-26T04:50:02;97368.90;;;0.09;78.71
56568;BME280;42456;49.956;20.004;2023-02-26T04:52:29;97366.67;;;0.05;78.81
56568;BME280;42456;49.956;20.004;2023-02-26T04:54:56;97368.18;;;0.03;78.17
56568;BME280;42456;49.956;20.004;2023-02-26T04:57:23;97375.29;;;0.00;78.73
56568;BME280;42456;49.956;20.004;2023-02-26T04:59:50;97375.22;;;-0.01;78.54
56568;BME280;42456;49.956;20.004;2023-02-26T05:02:17;97376.09;;;-0.04;78.42
56568;BME280;42456;49.956;20.004;2023-02-26T05:04:44;97381.41;;;-0.05;78.23
56568;BME280;42456;49.956;20.004;2023-02-26T05:07:11;97383.79;;;-0.07;78.02
56568;BME280;42456;49.956;20.004;2023-02-26T05:09:38;97396.70;;;-0.07;78.46
56568;BME280;42456;49.956;20.004;2023-02-26T05:12:05;97400.34;;;-0.07;78.88
56568;BME280;42456;49.956;20.004;2023-02-26T05:14:32;97395.38;;;-0.08;78.98
56568;BME280;42456;49.956;20.004;2023-02-26T05:16:58;97396.33;;;-0.08;79.15
56568;BME280;42456;49.956;20.004;2023-02-26T05:19:25;97399.41;;;-0.10;79.27
56568;BME280;42456;49.956;20.004;2023-02-26T05:21:52;97403.02;;;-0.10;78.99
56568;BME280;42456;49.956;20.004;2023-02-26T05:24:19;97395.16;;;-0.11;79.30
56568;BME280;42456;49.956;20.004;2023-02-26T05:26:46;97398.71;;;-0.13;78.94
56568;BME280;42456;49.956;20.004;2023-02-26T05:29:13;97404.45;;;-0.15;78.86
56568;BME280;42456;49.956;20.004;2023-02-26T05:31:40;97398.27;;;-0.16;78.92
56568;BME280;42456;49.956;20.004;2023-02-26T05:34:07;97390.14;;;-0.17;78.76
56568;BME280;42456;49.956;20.004;2023-02-26T05:36:35;97389.98;;;-0.18;78.99
56568;BME280;42456;49.956;20.004;2023-02-26T05:39:02;97394.45;;;-0.19;78.88
56568;BME280;42456;49.956;20.004;2023-02-26T05:41:29;97410.16;;;-0.20;78.50
56568;BME280;42456;49.956;20.004;2023-02-26T05:43:55;97417.52;;;-0.22;78.80
56568;BME280;42456;49.956;20.004;2023-02-26T05:46:22;97439.14;;;-0.23;78.51
56568;BME280;42456;49.956;20.004;2023-02-26T05:48:50;97446.59;;;-0.24;78.06
56568;BME280;42456;49.956;20.004;2023-02-26T05:51:17;97460.60;;;-0.24;77.94
56568;BME280;42456;49.956;20.004;2023-02-26T05:53:44;97476.58;;;-0.25;78.21
56568;BME280;42456;49.956;20.004;2023-02-26T05:56:11;97481.33;;;-0.25;77.99
56568;BME280;42456;49.956;20.004;2023-02-26T05:58:38;97486.03;;;-0.26;77.75
56568;BME280;42456;49.956;20.004;2023-02-26T06:01:05;97489.73;;;-0.25;77.61
56568;BME280;42456;49.956;20.004;2023-02-26T06:03:32;97507.54;;;-0.25;77.70
56568;BME280;42456;49.956;20.004;2023-02-26T06:05:59;97504.33;;;-0.25;77.51
56568;BME280;42456;49.956;20.004;2023-02-26T06:08:26;97504.73;;;-0.25;77.74
56568;BME280;42456;49.956;20.004;2023-02-26T06:10:53;97507.40;;;-0.23;77.43
56568;BME280;42456;49.956;20.004;2023-02-26T06:13:19;97504.71;;;-0.23;77.47
56568;BME280;42456;49.956;20.004;2023-02-26T06:15:49;97516.12;;;-0.21;77.30
56568;BME280;42456;49.956;20.004;2023-02-26T06:18:18;97521.76;;;-0.20;77.63
56568;BME280;42456;49.956;20.004;2023-02-26T06:20:44;97526.84;;;-0.17;77.42
56568;BME280;42456;49.956;20.004;2023-02-26T06:23:11;97526.73;;;-0.15;77.46
56568;BME280;42456;49.956;20.004;2023-02-26T06:25:41;97533.48;;;-0.12;77.41
56568;BME280;42456;49.956;20.004;2023-02-26T06:28:08;97540.77;;;-0.11;76.56
56568;BME280;42456;49.956;20.004;2023-02-26T06:30:35;97545.65;;;-0.09;77.04
56568;BME280;42456;49.956;20.004;2023-02-26T06:33:02;97548.95;;;-0.06;77.22
56568;BME280;42456;49.956;20.004;2023-02-26T06:35:28;97552.05;;;-0.02;77.21
56568;BME280;42456;49.956;20.004;2023-02-26T06:37:56;97556.19;;;0.01;77.15
56568;BME280;42456;49.956;20.004;2023-02-26T06:40:22;97561.33;;;0.05;77.23
56568;BME280;42456;49.956;20.004;2023-02-26T06:42:49;97556.38;;;0.08;77.29
56568;BME280;42456;49.956;20.004;2023-02-26T06:45:16;97557.02;;;0.10;76.92
56568;BME280;42456;49.956;20.004;2023-02-26T06:47:43;97559.61;;;0.12;76.39
56568;BME280;42456;49.956;20.004;2023-02-26T06:50:11;97563.84;;;0.14;76.47
56568;BME280;42456;49.956;20.004;2023-02-26T06:52:38;97560.31;;;0.18;76.38
56568;BME280;42456;49.956;20.004;2023-02-26T06:55:05;97564.49;;;0.23;76.22
56568;BME280;42456;49.956;20.004;2023-02-26T06:57:32;97567.26;;;0.27;75.99
56568;BME280;42456;49.956;20.004;2023-02-26T06:59:59;97572.35;;;0.30;75.44
56568;BME280;42456;49.956;20.004;2023-02-26T07:02:26;97575.07;;;0.35;76.16
56568;BME280;42456;49.956;20.004;2023-02-26T07:04:54;97573.84;;;0.41;75.68
56568;BME280;42456;49.956;20.004;2023-02-26T07:07:20;97580.70;;;0.46;74.98
56568;BME280;42456;49.956;20.004;2023-02-26T07:09:47;97583.06;;;0.49;75.04
56568;BME280;42456;49.956;20.004;2023-02-26T07:12:14;97584.37;;;0.56;74.52
56568;BME280;42456;49.956;20.004;2023-02-26T07:14:42;97587.98;;;0.64;75.20
56568;BME280;42456;49.956;20.004;2023-02-26T07:17:09;97587.54;;;0.80;75.14
56568;BME280;42456;49.956;20.004;2023-02-26T07:19:49;97587.35;;;0.95;75.00
56568;BME280;42456;49.956;20.004;2023-02-26T07:22:18;97585.54;;;1.04;74.38
56568;BME280;42456;49.956;20.004;2023-02-26T07:24:47;97592.32;;;1.13;74.38
56568;BME280;42456;49.956;20.004;2023-02-26T07:27:16;97599.89;;;1.25;74.35
56568;BME280;42456;49.956;20.004;2023-02-26T07:29:42;97600.48;;;1.33;73.81
56568;BME280;42456;49.956;20.004;2023-02-26T07:32:10;97600.32;;;1.36;73.51
56568;BME280;42456;49.956;20.004;2023-02-26T07:34:37;97605.95;;;1.39;73.85
56568;BME280;42456;49.956;20.004;2023-02-26T07:37:04;97604.82;;;1.41;73.36
56568;BME280;42456;49.956;20.004;2023-02-26T07:39:31;97612.03;;;1.36;72.74
56568;BME280;42456;49.956;20.004;2023-02-26T07:41:58;97616.23;;;1.35;73.13
56568;BME280;42456;49.956;20.004;2023-02-26T07:44:24;97624.54;;;1.35;72.56
56568;BME280;42456;49.956;20.004;2023-02-26T07:46:51;97638.21;;;1.36;72.52
56568;BME280;42456;49.956;20.004;2023-02-26T07:49:18;97649.99;;;1.38;72.31
56568;BME280;42456;49.956;20.004;2023-02-26T07:51:45;97654.50;;;1.42;72.14
56568;BME280;42456;49.956;20.004;2023-02-26T07:54:14;97657.44;;;1.48;72.18
56568;BME280;42456;49.956;20.004;2023-02-26T07:56:41;97660.29;;;1.54;72.37
56568;BME280;42456;49.956;20.004;2023-02-26T07:59:08;97662.67;;;1.62;72.70
56568;BME280;42456;49.956;20.004;2023-02-26T08:01:36;97669.54;;;1.71;72.52
56568;BME280;42456;49.956;20.004;2023-02-26T08:04:03;97675.41;;;1.79;71.79
56568;BME280;42456;49.956;20.004;2023-02-26T08:06:30;97671.67;;;1.89;71.23
56568;BME280;42456;49.956;20.004;2023-02-26T08:08:57;97676.30;;;1.99;71.49
56568;BME280;42456;49.956;20.004;2023-02-26T08:11:24;97682.58;;;2.09;71.23
56568;BME280;42456;49.956;20.004;2023-02-26T08:13:50;97682.08;;;2.17;71.09
56568;BME280;42456;49.956;20.004;2023-02-26T08:16:17;97681.89;;;2.25;71.29
56568;BME280;42456;49.956;20.004;2023-02-26T08:18:44;97682.98;;;2.36;70.83
56568;BME280;42456;49.956;20.004;2023-02-26T08:21:11;97685.27;;;2.46;70.70
56568;BME280;42456;49.956;20.004;2023-02-26T08:23:38;97689.99;;;2.36;68.21
56568;BME280;42456;49.956;20.004;2023-02-26T08:26:07;97689.63;;;2.15;67.98
56568;BME280;42456;49.956;20.004;2023-02-26T08:28:35;97696.61;;;1.95;67.96
56568;BME280;42456;49.956;20.004;2023-02-26T08:31:02;97703.70;;;1.81;67.91
56568;BME280;42456;49.956;20.004;2023-02-26T08:33:30;97707.24;;;1.71;68.22
56568;BME280;42456;49.956;20.004;2023-02-26T08:35:58;97708.27;;;1.69;69.22
56568;BME280;42456;49.956;20.004;2023-02-26T08:38:28;97709.39;;;1.73;68.60
56568;BME280;42456;49.956;20.004;2023-02-26T08:40:55;97710.20;;;1.78;68.76
56568;BME280;42456;49.956;20.004;2023-02-26T08:43:23;97712.11;;;1.86;69.14
56568;BME280;42456;49.956;20.004;2023-02-26T08:45:52;97712.71;;;1.89;69.22
56568;BME280;42456;49.956;20.004;2023-02-26T08:48:19;97720.72;;;1.93;68.77
56568;BME280;42456;49.956;20.004;2023-02-26T08:50:47;97733.02;;;1.97;68.32
56568;BME280;42456;49.956;20.004;2023-02-26T08:53:14;97732.37;;;2.05;67.98
56568;BME280;42456;49.956;20.004;2023-02-26T08:55:41;97736.20;;;2.16;67.98
56568;BME280;42456;49.956;20.004;2023-02-26T08:58:10;97735.28;;;2.25;67.53
56568;BME280;42456;49.956;20.004;2023-02-26T09:00:37;97738.00;;;2.34;67.60
56568;BME280;42456;49.956;20.004;2023-02-26T09:03:04;97736.59;;;2.43;66.95
56568;BME280;42456;49.956;20.004;2023-02-26T09:05:31;97739.79;;;2.42;66.09
56568;BME280;42456;49.956;20.004;2023-02-26T09:07:57;97746.80;;;2.32;64.98
56568;BME280;42456;49.956;20.004;2023-02-26T09:10:25;97754.70;;;2.28;65.35
56568;BME280;42456;49.956;20.004;2023-02-26T09:12:52;97759.33;;;2.27;65.36
56568;BME280;42456;49.956;20.004;2023-02-26T09:15:19;97764.10;;;2.31;65.78
56568;BME280;42456;49.956;20.004;2023-02-26T09:17:46;97768.27;;;2.43;65.52
56568;BME280;42456;49.956;20.004;2023-02-26T09:20:14;97773.17;;;2.56;65.52
56568;BME280;42456;49.956;20.004;2023-02-26T09:22:41;97777.13;;;2.67;66.71
56568;BME280;42456;49.956;20.004;2023-02-26T09:25:08;97777.56;;;2.77;66.46
56568;BME280;42456;49.956;20.004;2023-02-26T09:27:35;97777.83;;;2.83;66.54
56568;BME280;42456;49.956;20.004;2023-02-26T09:30:03;97779.85;;;2.92;66.77
56568;BME280;42456;49.956;20.004;2023-02-26T09:32:31;97780.23;;;3.05;67.10
56568;BME280;42456;49.956;20.004;2023-02-26T09:35:00;97782.56;;;3.14;66.46
56568;BME280;42456;49.956;20.004;2023-02-26T09:37:28;97785.57;;;3.19;66.34
56568;BME280;42456;49.956;20.004;2023-02-26T09:39:56;97790.11;;;3.20;66.30
56568;BME280;42456;49.956;20.004;2023-02-26T09:42:38;97790.36;;;3.15;66.24
56568;BME280;42456;49.956;20.004;2023-02-26T09:45:24;97789.07;;;3.03;65.87
56568;BME280;42456;49.956;20.004;2023-02-26T09:47:52;97795.96;;;2.91;66.21
56568;BME280;42456;49.956;20.004;2023-02-26T09:50:43;97794.73;;;2.82;66.18
56568;BME280;42456;49.956;20.004;2023-02-26T09:53:21;97804.20;;;2.64;65.57
56568;BME280;42456;49.956;20.004;2023-02-26T09:55:52;97810.56;;;2.44;65.74
56568;BME280;42456;49.956;20.004;2023-02-26T09:58:36;97812.89;;;2.25;66.13
56568;BME280;42456;49.956;20.004;2023-02-26T10:01:28;97819.77;;;2.07;66.74
56568;BME280;42456;49.956;20.004;2023-02-26T10:06:54;97835.58;;;1.84;68.30
56568;BME280;42456;49.956;20.004;2023-02-26T10:14:48;97848.33;;;1.73;69.34
56568;BME280;42456;49.956;20.004;2023-02-26T10:25:34;97844.42;;;2.21;69.71
56568;BME280;42456;49.956;20.004;2023-02-26T10:28:33;97850.35;;;2.45;70.56
56568;BME280;42456;49.956;20.004;2023-02-26T10:31:20;97849.52;;;2.61;68.57
56568;BME280;42456;49.956;20.004;2023-02-26T10:36:43;97857.48;;;2.76;67.84
56568;BME280;42456;49.956;20.004;2023-02-26T10:39:23;97864.58;;;2.82;67.24
56568;BME280;42456;49.956;20.004;2023-02-26T10:41:53;97859.41;;;2.75;66.83
56568;BME280;42456;49.956;20.004;2023-02-26T10:44:37;97862.70;;;2.69;66.66
56568;BME280;42456;49.956;20.004;2023-02-26T10:50:20;97861.68;;;2.80;67.17
56568;BME280;42456;49.956;20.004;2023-02-26T10:52:46;97867.17;;;2.86;66.72
56568;BME280;42456;49.956;20.004;2023-02-26T10:58:09;97875.53;;;2.66;66.35
56568;BME280;42456;49.956;20.004;2023-02-26T11:00:41;97886.20;;;2.56;66.44
56568;BME280;42456;49.956;20.004;2023-02-26T11:03:15;97886.48;;;2.54;66.67
56568;BME280;42456;49.956;20.004;2023-02-26T11:05:44;97888.44;;;2.58;66.05
56568;BME280;42456;49.956;20.004;2023-02-26T11:10:58;97884.63;;;2.72;64.43
56568;BME280;42456;49.956;20.004;2023-02-26T11:13:29;97886.88;;;2.82;64.18
56568;BME280;42456;49.956;20.004;2023-02-26T11:16:00;97885.52;;;2.84;63.09
56568;BME280;42456;49.956;20.004;2023-02-26T11:18:54;97884.92;;;2.85;63.77
56568;BME280;42456;49.956;20.004;2023-02-26T11:21:27;97885.53;;;2.94;64.23
56568;BME280;42456;49.956;20.004;2023-02-26T11:27:13;97898.15;;;2.92;60.71
56568;BME280;42456;49.956;20.004;2023-02-26T11:29:46;97895.55;;;2.88;61.34
56568;BME280;42456;49.956;20.004;2023-02-26T11:32:19;97896.76;;;2.93;61.58
56568;BME280;42456;49.956;20.004;2023-02-26T11:34:49;97900.56;;;2.98;61.51
56568;BME280;42456;49.956;20.004;2023-02-26T11:37:22;97906.33;;;3.06;61.47
56568;BME280;42456;49.956;20.004;2023-02-26T11:42:47;97915.44;;;3.18;60.36
56568;BME280;42456;49.956;20.004;2023-02-26T11:45:17;97916.91;;;3.26;60.74
56568;BME280;42456;49.956;20.004;2023-02-26T11:47:46;97914.60;;;3.28;61.02
56568;BME280;42456;49.956;20.004;2023-02-26T11:50:18;97920.34;;;3.20;59.50
56568;BME280;42456;49.956;20.004;2023-02-26T11:53:05;97924.20;;;2.98;58.88
56568;BME280;42456;49.956;20.004;2023-02-26T11:55:38;97924.58;;;2.72;60.16
56568;BME280;42456;49.956;20.004;2023-02-26T11:58:17;97939.14;;;2.46;60.73
56568;BME280;42456;49.956;20.004;2023-02-26T12:00:45;97937.68;;;2.22;61.93
56568;BME280;42456;49.956;20.004;2023-02-26T12:03:19;97943.40;;;2.09;62.99
56568;BME280;42456;49.956;20.004;2023-02-26T12:05:49;97945.27;;;1.93;62.54
56568;BME280;42456;49.956;20.004;2023-02-26T12:08:29;97956.36;;;1.74;62.70
56568;BME280;42456;49.956;20.004;2023-02-26T12:11:16;97958.51;;;1.59;63.22
56568;BME280;42456;49.956;20.004;2023-02-26T12:19:05;97966.56;;;1.54;64.14
56568;BME280;42456;49.956;20.004;2023-02-26T12:29:41;97985.30;;;1.76;63.22
56568;BME280;42456;49.956;20.004;2023-02-26T12:40:37;97993.73;;;2.01;63.36
56568;BME280;42456;49.956;20.004;2023-02-26T13:01:50;98029.56;;;1.71;63.27
56568;BME280;42456;49.956;20.004;2023-02-26T13:18:52;98050.16;;;1.52;64.12
56568;BME280;42456;49.956;20.004;2023-02-26T13:21:27;98053.33;;;1.45;64.06
56568;BME280;42456;49.956;20.004;2023-02-26T13:24:10;98051.21;;;1.36;64.13
56568;BME280;42456;49.956;20.004;2023-02-26T13:26:39;98065.16;;;1.26;63.60
56568;BME280;42456;49.956;20.004;2023-02-26T13:29:20;98069.19;;;1.17;64.20
56568;BME280;42456;49.956;20.004;2023-02-26T13:31:55;98083.23;;;1.13;64.21
56568;BME280;42456;49.956;20.004;2023-02-26T13:34:34;98085.43;;;1.08;64.50
56568;BME280;42456;49.956;20.004;2023-02-26T13:37:04;98080.64;;;1.03;65.11
56568;BME280;42456;49.956;20.004;2023-02-26T13:48:02;98095.11;;;0.85;66.59
56568;BME280;42456;49.956;20.004;2023-02-26T13:50:48;98099.16;;;0.78;67.07
56568;BME280;42456;49.956;20.004;2023-02-26T13:58:41;98109.31;;;0.34;70.34
56568;BME280;42456;49.956;20.004;2023-02-26T14:01:17;98114.71;;;0.24;71.39
56568;BME280;42456;49.956;20.004;2023-02-26T14:03:46;98121.91;;;0.16;71.10
56568;BME280;42456;49.956;20.004;2023-02-26T14:06:35;98125.98;;;0.13;70.76
56568;BME280;42456;49.956;20.004;2023-02-26T14:09:28;98126.05;;;0.14;70.27
56568;BME280;42456;49.956;20.004;2023-02-26T14:14:23;98130.00;;;0.22;69.70
56568;BME280;42456;49.956;20.004;2023-02-26T14:35:15;98139.27;;;0.11;67.21
56568;BME280;42456;49.956;20.004;2023-02-26T14:37:57;98144.02;;;0.01;67.69
56568;BME280;42456;49.956;20.004;2023-02-26T14:40:25;98145.71;;;-0.04;68.14
56568;BME280;42456;49.956;20.004;2023-02-26T14:42:59;98149.63;;;-0.07;68.12
56568;BME280;42456;49.956;20.004;2023-02-26T14:48:02;98144.76;;;-0.12;68.58
56568;BME280;42456;49.956;20.004;2023-02-26T14:53:33;98143.54;;;-0.14;68.05
56568;BME280;42456;49.956;20.004;2023-02-26T14:56:10;98149.46;;;-0.13;68.27
56568;BME280;42456;49.956;20.004;2023-02-26T15:04:22;98162.42;;;-0.04;68.24
56568;BME280;42456;49.956;20.004;2023-02-26T15:07:13;98171.56;;;-0.06;67.73
56568;BME280;42456;49.956;20.004;2023-02-26T15:15:09;98191.08;;;-0.05;67.90
56568;BME280;42456;49.956;20.004;2023-02-26T15:23:16;98202.61;;;-0.04;68.05
56568;BME280;42456;49.956;20.004;2023-02-26T15:25:49;98206.67;;;-0.05;68.15
56568;BME280;42456;49.956;20.004;2023-02-26T15:28:25;98204.71;;;-0.04;68.36
56568;BME280;42456;49.956;20.004;2023-02-26T15:30:54;98214.45;;;-0.03;67.93
56568;BME280;42456;49.956;20.004;2023-02-26T15:33:23;98219.84;;;-0.05;67.63
56568;BME280;42456;49.956;20.004;2023-02-26T15:35:51;98215.14;;;-0.05;67.79
56568;BME280;42456;49.956;20.004;2023-02-26T15:38:19;98217.93;;;-0.06;67.58
56568;BME280;42456;49.956;20.004;2023-02-26T15:40:47;98219.09;;;-0.09;67.53
56568;BME280;42456;49.956;20.004;2023-02-26T15:43:19;98220.30;;;-0.12;67.43
56568;BME280;42456;49.956;20.004;2023-02-26T15:45:49;98220.60;;;-0.16;67.44
56568;BME280;42456;49.956;20.004;2023-02-26T15:48:25;98229.11;;;-0.20;67.60
56568;BME280;42456;49.956;20.004;2023-02-26T15:50:56;98234.23;;;-0.23;68.04
56568;BME280;42456;49.956;20.004;2023-02-26T15:56:09;98248.64;;;-0.29;68.09
56568;BME280;42456;49.956;20.004;2023-02-26T15:58:44;98257.04;;;-0.30;67.82
56568;BME280;42456;49.956;20.004;2023-02-26T16:01:16;98259.94;;;-0.31;67.54
56568;BME280;42456;49.956;20.004;2023-02-26T16:03:45;98257.81;;;-0.32;67.14
56568;BME280;42456;49.956;20.004;2023-02-26T16:06:18;98260.98;;;-0.33;67.36
56568;BME280;42456;49.956;20.004;2023-02-26T16:08:45;98263.09;;;-0.34;67.24
56568;BME280;42456;49.956;20.004;2023-02-26T16:11:13;98267.05;;;-0.34;67.13
56568;BME280;42456;49.956;20.004;2023-02-26T16:13:42;98274.03;;;-0.35;66.87
56568;BME280;42456;49.956;20.004;2023-02-26T16:16:17;98285.97;;;-0.36;66.73
56568;BME280;42456;49.956;20.004;2023-02-26T16:18:47;98292.52;;;-0.37;66.94
56568;BME280;42456;49.956;20.004;2023-02-26T16:21:28;98299.01;;;-0.38;67.34
56568;BME280;42456;49.956;20.004;2023-02-26T16:23:57;98305.34;;;-0.40;67.22
56568;BME280;42456;49.956;20.004;2023-02-26T16:26:52;98307.65;;;-0.43;67.43
56568;BME280;42456;49.956;20.004;2023-02-26T16:29:23;98318.56;;;-0.46;67.58
56568;BME280;42456;49.956;20.004;2023-02-26T16:31:53;98322.85;;;-0.49;67.79
56568;BME280;42456;49.956;20.004;2023-02-26T16:36:53;98326.60;;;-0.56;68.38
56568;BME280;42456;49.956;20.004;2023-02-26T16:39:23;98333.23;;;-0.59;68.63